createdAt,value
2018-04-12T00:02:26.486Z,12.30
2018-04-12T00:04:54.052Z,12.20
2018-04-12T00:07:21.653Z,12.10
2018-04-12T00:09:49.199Z,12.10
2018-04-12T00:12:16.814Z,12.10
2018-04-12T00:14:44.471Z,11.90
2018-04-12T00:17:12.095Z,11.70
2018-04-12T00:19:39.660Z,11.50
2018-04-12T00:22:07.247Z,11.40
2018-04-12T00:24:34.962Z,11.40
2018-04-12T00:27:03.387Z,11.40
2018-04-12T00:29:31.007Z,11.30
2018-04-12T00:31:58.563Z,11.30
2018-04-12T00:34:26.111Z,11.30
2018-04-12T00:36:53.740Z,11.20
2018-04-12T00:39:21.304Z,11.20
2018-04-12T00:41:48.867Z,11.10
2018-04-12T00:44:16.543Z,11.10
2018-04-12T00:46:44.119Z,11.10
2018-04-12T00:49:11.666Z,11.10
2018-04-12T00:51:39.239Z,11.10
2018-04-12T00:54:07.552Z,11.10
2018-04-12T00:56:35.887Z,11.10
2018-04-12T00:59:03.463Z,11.10
2018-04-12T01:01:31.048Z,11.10
2018-04-12T01:03:58.608Z,11.10
2018-04-12T01:06:26.170Z,11.10
2018-04-12T01:08:53.831Z,11.10
2018-04-12T01:11:21.390Z,11.00
2018-04-12T01:13:49.024Z,11.00
2018-04-12T01:16:16.588Z,11.00
2018-04-12T01:18:44.167Z,11.00
2018-04-12T01:21:11.786Z,11.00
2018-04-12T01:23:39.350Z,10.90
2018-04-12T01:26:06.930Z,10.90
2018-04-12T01:28:34.544Z,10.90
2018-04-12T01:31:02.126Z,10.90
2018-04-12T01:33:29.690Z,10.80
2018-04-12T01:35:57.314Z,10.90
2018-04-12T01:38:24.874Z,10.90
2018-04-12T01:40:53.195Z,10.90
2018-04-12T01:43:20.788Z,10.90
2018-04-12T01:45:48.381Z,10.90
2018-04-12T01:48:16.785Z,10.80
2018-04-12T01:50:44.345Z,10.80
2018-04-12T01:53:11.937Z,10.80
2018-04-12T01:55:39.495Z,10.80
2018-04-12T01:58:07.041Z,10.90
2018-04-12T02:00:34.633Z,10.90
2018-04-12T02:03:02.852Z,10.80
2018-04-12T02:05:30.432Z,10.70
2018-04-12T02:07:57.993Z,10.60
2018-04-12T02:10:25.574Z,10.60
2018-04-12T02:12:53.159Z,10.50
2018-04-12T02:15:20.753Z,10.50
2018-04-12T02:17:48.343Z,10.40
2018-04-12T02:20:16.694Z,10.40
2018-04-12T02:22:44.308Z,10.40
2018-04-12T02:25:11.883Z,10.40
2018-04-12T02:27:39.440Z,10.30
2018-04-12T02:30:07.058Z,10.20
2018-04-12T02:32:34.629Z,10.20
2018-04-12T02:35:02.224Z,10.20
2018-04-12T02:37:29.786Z,10.10
2018-04-12T02:39:58.151Z,10.10
2018-04-12T02:42:25.710Z,10.00
2018-04-12T02:44:53.335Z,10.00
2018-04-12T02:47:20.897Z,9.90
2018-04-12T02:49:48.449Z,10.00
2018-04-12T02:52:16.025Z,10.00
2018-04-12T02:54:43.576Z,10.00
2018-04-12T02:57:11.158Z,10.10
2018-04-12T02:59:38.716Z,10.10
2018-04-12T03:02:06.312Z,10.10
2018-04-12T03:04:34.670Z,10.20
2018-04-12T03:07:02.228Z,10.20
2018-04-12T03:09:29.842Z,10.20
2018-04-12T03:11:57.404Z,10.20
2018-04-12T03:14:24.976Z,10.00
2018-04-12T03:16:52.571Z,9.80
2018-04-12T03:19:20.177Z,9.80
2018-04-12T03:21:47.733Z,9.90
2018-04-12T03:24:15.274Z,9.90
2018-04-12T03:26:43.722Z,9.80
2018-04-12T03:29:11.276Z,9.80
2018-04-12T03:31:38.866Z,9.90
2018-04-12T03:34:06.419Z,9.90
2018-04-12T03:36:34.126Z,9.90
2018-04-12T03:39:02.433Z,9.90
2018-04-12T03:41:29.993Z,9.90
2018-04-12T03:43:57.601Z,9.90
2018-04-12T03:46:25.921Z,9.80
2018-04-12T03:48:53.465Z,9.80
2018-04-12T03:51:21.104Z,9.80
2018-04-12T03:53:49.441Z,9.70
2018-04-12T03:56:17.029Z,9.70
2018-04-12T03:58:44.586Z,9.70
2018-04-12T04:01:12.961Z,9.60
2018-04-12T04:03:40.551Z,9.60
2018-04-12T04:06:08.911Z,9.70
2018-04-12T04:08:36.462Z,9.70
2018-04-12T04:11:04.080Z,9.60
2018-04-12T04:13:31.636Z,9.70
2018-04-12T04:16:11.013Z,9.70
2018-04-12T04:18:50.253Z,9.80
2018-04-12T04:21:17.887Z,9.80
2018-04-12T04:23:45.458Z,9.90
2018-04-12T04:26:13.011Z,9.90
2018-04-12T04:28:40.566Z,9.90
2018-04-12T04:31:08.150Z,10.00
2018-04-12T04:33:35.753Z,10.00
2018-04-12T04:36:03.306Z,10.00
2018-04-12T04:38:30.963Z,10.10
2018-04-12T04:40:59.428Z,10.20
2018-04-12T04:43:26.992Z,10.20
2018-04-12T04:45:55.314Z,10.30
2018-04-12T04:48:22.982Z,10.30
2018-04-12T04:50:50.537Z,10.40
2018-04-12T04:53:18.103Z,10.40
2018-04-12T04:55:46.468Z,10.50
2018-04-12T04:58:14.039Z,10.50
2018-04-12T05:00:41.652Z,10.60
2018-04-12T05:03:09.211Z,10.60
2018-04-12T05:05:36.769Z,10.70
2018-04-12T05:08:04.357Z,10.80
2018-04-12T05:10:31.924Z,10.90
2018-04-12T05:12:59.469Z,11.00
2018-04-12T05:15:27.056Z,11.10
2018-04-12T05:17:54.631Z,11.20
2018-04-12T05:20:22.209Z,11.30
2018-04-12T05:22:49.890Z,11.40
2018-04-12T05:25:17.458Z,11.50
2018-04-12T05:27:45.057Z,11.60
2018-04-12T05:30:12.650Z,11.70
2018-04-12T05:32:40.235Z,11.80
2018-04-12T05:35:07.833Z,11.90
2018-04-12T05:37:35.427Z,12.00
2018-04-12T05:40:02.981Z,12.10
2018-04-12T05:42:30.538Z,12.20
2018-04-12T05:44:58.256Z,12.40
2018-04-12T05:47:25.803Z,12.40
2018-04-12T05:49:53.361Z,12.60
2018-04-12T05:52:20.943Z,12.80
2018-04-12T05:54:49.309Z,13.00
2018-04-12T05:57:16.861Z,13.00
2018-04-12T05:59:44.467Z,13.10
2018-04-12T06:02:12.099Z,13.10
2018-04-12T06:04:40.409Z,13.40
2018-04-12T06:07:07.952Z,13.40
2018-04-12T06:09:35.529Z,13.60
2018-04-12T06:12:03.128Z,13.70
2018-04-12T06:14:30.669Z,13.80
2018-04-12T06:16:58.240Z,14.00
2018-04-12T06:19:25.840Z,14.10
2018-04-12T06:21:54.185Z,14.70
2018-04-12T06:24:21.734Z,14.70
2018-04-12T06:26:49.313Z,14.90
2018-04-12T06:29:16.869Z,15.20
2018-04-12T06:31:44.454Z,15.40
2018-04-12T06:34:12.801Z,15.50
2018-04-12T06:36:40.358Z,15.50
2018-04-12T06:39:07.976Z,15.60
2018-04-12T06:41:35.535Z,15.80
2018-04-12T06:44:03.099Z,15.80
2018-04-12T06:46:30.699Z,16.00
2018-04-12T06:48:58.256Z,16.40
2018-04-12T06:51:26.179Z,16.30
2018-04-12T06:53:53.791Z,16.40
2018-04-12T06:56:21.352Z,16.60
2018-04-12T06:58:48.947Z,16.80
2018-04-12T07:01:16.507Z,17.10
2018-04-12T07:03:44.835Z,17.30
2018-04-12T07:06:12.459Z,17.30
2018-04-12T07:08:40.022Z,17.60
2018-04-12T07:11:08.334Z,18.00
2018-04-12T07:13:35.953Z,18.00
2018-04-12T07:16:04.286Z,18.40
2018-04-12T07:18:31.833Z,18.30
2018-04-12T07:20:59.442Z,18.30
2018-04-12T07:23:27.009Z,18.60
2018-04-12T07:25:55.336Z,19.00
2018-04-12T07:28:22.942Z,19.00
2018-04-12T07:30:51.261Z,19.60
2018-04-12T07:33:18.843Z,19.60
2018-04-12T07:35:46.395Z,19.90
2018-04-12T07:38:13.995Z,19.90
2018-04-12T07:40:41.605Z,20.00
2018-04-12T07:43:09.159Z,20.10
2018-04-12T07:45:36.726Z,20.20
2018-04-12T07:48:04.369Z,20.30
2018-04-12T07:50:31.929Z,20.60
2018-04-12T07:52:59.527Z,21.00
2018-04-12T07:55:27.105Z,21.10
2018-04-12T07:57:54.693Z,21.10
2018-04-12T08:00:23.007Z,21.60
2018-04-12T08:02:50.594Z,21.60
2018-04-12T08:05:18.194Z,21.50
2018-04-12T08:07:45.760Z,21.70
2018-04-12T08:10:13.358Z,21.80
2018-04-12T08:12:40.935Z,22.10
2018-04-12T08:15:08.491Z,22.20
2018-04-12T08:17:36.043Z,22.20
2018-04-12T08:20:03.637Z,22.60
2018-04-12T08:22:31.194Z,22.60
2018-04-12T08:24:58.775Z,22.60
2018-04-12T08:27:27.085Z,23.00
2018-04-12T08:29:54.690Z,23.00
2018-04-12T08:32:22.237Z,23.20
2018-04-12T08:34:49.778Z,23.30
2018-04-12T08:37:17.367Z,23.10
2018-04-12T08:39:44.908Z,22.80
2018-04-12T08:42:12.523Z,23.00
2018-04-12T08:44:40.071Z,22.80
2018-04-12T08:47:08.410Z,23.30
2018-04-12T08:49:36.007Z,23.30
2018-04-12T08:52:03.619Z,23.30
2018-04-12T08:54:31.231Z,23.40
2018-04-12T08:56:59.573Z,23.20
2018-04-12T08:59:27.174Z,23.20
2018-04-12T09:01:55.538Z,23.50
2018-04-12T09:04:23.234Z,23.50
2018-04-12T09:06:50.830Z,23.50
2018-04-12T09:09:18.491Z,23.30
2018-04-12T09:11:46.046Z,23.80
2018-04-12T09:14:13.662Z,24.00
2018-04-12T09:16:41.232Z,24.20
2018-04-12T09:19:08.842Z,24.20
2018-04-12T09:21:37.164Z,24.50
2018-04-12T09:24:05.489Z,24.70
2018-04-12T09:26:33.213Z,24.60
2018-04-12T09:29:00.768Z,24.50
2018-04-12T09:31:28.327Z,24.40
2018-04-12T09:33:55.931Z,24.50
2018-04-12T09:36:23.480Z,24.50
2018-04-12T09:38:51.090Z,24.60
2018-04-12T09:41:19.133Z,24.70
2018-04-12T09:43:46.671Z,24.60
2018-04-12T09:46:14.301Z,24.70
2018-04-12T09:48:41.832Z,24.80
2018-04-12T09:51:09.390Z,25.10
2018-04-12T09:53:36.992Z,25.40
2018-04-12T09:56:04.550Z,25.30
2018-04-12T09:58:32.103Z,25.60
2018-04-12T10:01:00.467Z,25.80
2018-04-12T10:03:28.819Z,26.00
2018-04-12T10:06:02.033Z,26.00
2018-04-12T10:08:29.630Z,25.80
2018-04-12T10:10:57.240Z,25.70
2018-04-12T10:13:24.873Z,25.60
2018-04-12T10:15:52.434Z,25.70
2018-04-12T10:18:20.005Z,25.90
2018-04-12T10:20:47.614Z,25.90
2018-04-12T10:23:15.239Z,25.80
2018-04-12T10:25:42.790Z,25.90
2018-04-12T10:28:10.382Z,25.90
2018-04-12T10:30:37.961Z,26.10
2018-04-12T10:33:06.302Z,25.70
2018-04-12T10:35:33.915Z,25.70
2018-04-12T10:38:01.490Z,26.10
2018-04-12T10:40:29.033Z,25.70
2018-04-12T10:42:57.283Z,25.80
2018-04-12T10:45:25.666Z,25.80
2018-04-12T10:47:54.005Z,25.60
2018-04-12T10:50:22.341Z,25.60
2018-04-12T10:52:49.956Z,25.70
2018-04-12T10:55:17.519Z,25.60
2018-04-12T10:57:45.107Z,25.50
2018-04-12T11:00:12.686Z,25.70
2018-04-12T11:02:40.294Z,25.70
2018-04-12T11:05:07.866Z,25.80
2018-04-12T11:07:36.251Z,25.90
2018-04-12T11:10:03.804Z,25.90
2018-04-12T11:12:32.193Z,26.10
2018-04-12T11:14:59.794Z,26.10
2018-04-12T11:17:27.433Z,26.30
2018-04-12T11:19:55.773Z,25.70
2018-04-12T11:22:23.358Z,25.70
2018-04-12T11:24:50.947Z,25.80
2018-04-12T11:27:18.545Z,25.80
2018-04-12T11:29:46.114Z,25.60
2018-04-12T11:32:13.713Z,25.70
2018-04-12T11:34:41.340Z,26.00
2018-04-12T11:37:08.973Z,26.00
2018-04-12T11:39:36.551Z,26.10
2018-04-12T11:42:04.102Z,26.30
2018-04-12T11:44:31.898Z,26.20
2018-04-12T11:46:59.503Z,26.00
2018-04-12T11:49:27.062Z,26.20
2018-04-12T11:51:54.625Z,26.40
2018-04-12T11:54:22.224Z,26.40
2018-04-12T11:56:49.809Z,26.30
2018-04-12T11:59:17.436Z,26.50
2018-04-12T12:01:45.045Z,26.70
2018-04-12T12:04:12.577Z,26.60
2018-04-12T12:06:40.150Z,26.60
2018-04-12T12:09:07.706Z,26.60
2018-04-12T12:11:35.294Z,26.60
2018-04-12T12:14:03.621Z,26.70
2018-04-12T12:16:31.242Z,26.60
2018-04-12T12:18:58.787Z,26.80
2018-04-12T12:21:27.100Z,26.90
2018-04-12T12:23:54.725Z,26.90
2018-04-12T12:26:23.107Z,26.80
2018-04-12T12:28:51.444Z,27.00
2018-04-12T12:31:19.000Z,26.90
2018-04-12T12:33:46.619Z,27.10
2018-04-12T12:36:14.206Z,27.20
2018-04-12T12:38:41.756Z,27.10
2018-04-12T12:41:09.365Z,27.10
2018-04-12T12:43:36.913Z,27.00
2018-04-12T12:46:04.458Z,26.90
2018-04-12T12:48:32.030Z,26.70
2018-04-12T12:50:59.568Z,26.90
2018-04-12T12:53:27.176Z,26.70
2018-04-12T12:55:54.785Z,26.60
2018-04-12T12:58:22.314Z,26.70
2018-04-12T13:00:50.670Z,26.80
2018-04-12T13:03:18.226Z,26.80
2018-04-12T13:05:45.784Z,26.80
2018-04-12T13:08:13.394Z,26.70
2018-04-12T13:10:40.949Z,26.90
2018-04-12T13:13:08.504Z,26.90
2018-04-12T13:15:36.123Z,26.70
2018-04-12T13:18:03.667Z,26.70
2018-04-12T13:20:31.255Z,26.70
2018-04-12T13:22:58.973Z,26.60
2018-04-12T13:25:26.699Z,26.60
2018-04-12T13:27:54.245Z,26.60
2018-04-12T13:30:21.856Z,26.70
2018-04-12T13:32:49.399Z,26.70
2018-04-12T13:35:16.952Z,26.80
2018-04-12T13:37:45.302Z,26.70
2018-04-12T13:40:12.838Z,26.70
2018-04-12T13:42:40.391Z,26.80
2018-04-12T13:45:07.954Z,26.90
2018-04-12T13:47:35.537Z,26.90
2018-04-12T13:50:03.206Z,26.80
2018-04-12T13:52:30.755Z,26.80
2018-04-12T13:54:58.305Z,26.80
2018-04-12T13:57:25.849Z,26.60
2018-04-12T13:59:54.242Z,26.50
2018-04-12T14:02:21.787Z,26.50
2018-04-12T14:04:49.334Z,26.40
2018-04-12T14:07:16.950Z,26.20
2018-04-12T14:09:44.718Z,26.10
2018-04-12T14:12:13.055Z,25.80
2018-04-12T14:14:40.654Z,25.80
2018-04-12T14:17:08.263Z,25.80
2018-04-12T14:19:35.799Z,25.80
2018-04-12T14:22:03.426Z,25.70
2018-04-12T14:24:30.982Z,25.60
2018-04-12T14:26:58.517Z,25.40
2018-04-12T14:29:26.121Z,25.40
2018-04-12T14:31:54.443Z,25.60
2018-04-12T14:34:22.002Z,25.50
2018-04-12T14:36:49.575Z,25.50
2018-04-12T14:39:17.153Z,25.50
2018-04-12T14:41:44.735Z,25.40
2018-04-12T14:44:13.122Z,25.40
2018-04-12T14:46:41.449Z,25.40
2018-04-12T14:49:09.027Z,25.40
2018-04-12T14:51:36.616Z,25.30
2018-04-12T14:54:04.183Z,25.30
2018-04-12T14:56:32.555Z,25.30
2018-04-12T14:59:00.886Z,25.30
2018-04-12T15:01:28.463Z,25.30
2018-04-12T15:03:56.151Z,25.30
2018-04-12T15:06:23.732Z,25.30
2018-04-12T15:08:52.104Z,25.20
2018-04-12T15:11:19.885Z,25.20
2018-04-12T15:13:48.457Z,25.10
2018-04-12T15:16:18.028Z,25.10
2018-04-12T15:18:48.016Z,25.10
2018-04-12T15:21:16.500Z,25.10
2018-04-12T15:23:44.090Z,25.10
2018-04-12T15:26:11.713Z,25.20
2018-04-12T15:28:39.288Z,25.30
2018-04-12T15:31:06.951Z,25.20
2018-04-12T15:33:34.546Z,25.20
2018-04-12T15:36:02.869Z,25.30
2018-04-12T15:38:30.467Z,25.30
2018-04-12T15:40:58.064Z,25.20
2018-04-12T15:43:26.448Z,25.10
2018-04-12T15:45:54.031Z,25.10
2018-04-12T15:48:21.610Z,25.00
2018-04-12T15:50:49.229Z,24.80
2018-04-12T15:53:17.745Z,24.70
2018-04-12T15:55:45.379Z,24.70
2018-04-12T15:58:13.208Z,24.60
2018-04-12T16:00:40.912Z,24.50
2018-04-12T16:03:08.486Z,24.40
2018-04-12T16:05:36.366Z,24.40
2018-04-12T16:08:04.027Z,24.30
2018-04-12T16:10:31.608Z,24.30
2018-04-12T16:12:59.246Z,24.20
2018-04-12T16:15:26.872Z,24.20
2018-04-12T16:17:55.262Z,24.00
2018-04-12T16:20:23.051Z,24.00
2018-04-12T16:22:50.640Z,24.00
2018-04-12T16:25:18.251Z,24.00
2018-04-12T16:27:46.437Z,24.00
2018-04-12T16:30:14.004Z,24.00
2018-04-12T16:32:41.647Z,24.00
2018-04-12T16:35:09.284Z,24.00
2018-04-12T16:37:36.922Z,24.00
2018-04-12T16:40:04.516Z,24.00
2018-04-12T16:42:33.071Z,23.90
2018-04-12T16:45:00.717Z,23.80
2018-04-12T16:47:28.331Z,23.90
2018-04-12T16:49:56.707Z,23.80
2018-04-12T16:52:24.298Z,23.80
2018-04-12T16:54:51.991Z,23.70
2018-04-12T16:57:19.605Z,23.60
2018-04-12T16:59:47.222Z,23.60
2018-04-12T17:02:14.812Z,23.50
2018-04-12T17:04:42.390Z,23.40
2018-04-12T17:07:10.747Z,23.30
2018-04-12T17:09:38.328Z,23.30
2018-04-12T17:12:05.917Z,23.20
2018-04-12T17:14:33.465Z,23.20
2018-04-12T17:17:01.067Z,23.10
2018-04-12T17:19:28.650Z,23.00
2018-04-12T17:21:56.276Z,23.00
2018-04-12T17:24:23.860Z,22.90
2018-04-12T17:26:51.622Z,22.80
2018-04-12T17:29:19.359Z,22.70
2018-04-12T17:31:48.551Z,22.60
2018-04-12T17:34:16.118Z,22.60
2018-04-12T17:36:43.705Z,22.50
2018-04-12T17:39:11.263Z,22.40
2018-04-12T17:41:38.847Z,22.40
2018-04-12T17:44:06.474Z,22.20
2018-04-12T17:46:34.044Z,22.20
2018-04-12T17:49:01.597Z,22.10
2018-04-12T17:51:29.199Z,22.00
2018-04-12T17:53:57.562Z,21.80
2018-04-12T17:56:25.163Z,21.80
2018-04-12T17:58:52.725Z,21.70
2018-04-12T18:01:20.288Z,21.60
2018-04-12T18:03:48.019Z,21.60
2018-04-12T18:06:15.569Z,21.50
2018-04-12T18:08:43.149Z,21.40
2018-04-12T18:11:11.506Z,21.30
2018-04-12T18:13:39.087Z,21.30
2018-04-12T18:16:14.050Z,21.20
2018-04-12T18:18:49.327Z,21.20
2018-04-12T18:21:26.538Z,21.10
2018-04-12T18:24:02.562Z,20.90
2018-04-12T18:26:40.682Z,20.90
2018-04-12T18:29:15.408Z,20.90
2018-04-12T18:31:50.165Z,20.80
2018-04-12T18:34:26.352Z,20.60
2018-04-12T18:37:00.790Z,20.60
2018-04-12T18:39:35.887Z,20.50
2018-04-12T18:42:12.493Z,20.40
2018-04-12T18:44:48.044Z,20.40
2018-04-12T18:47:21.860Z,20.40
2018-04-12T18:52:55.728Z,20.30
2018-04-12T18:55:26.071Z,20.20
2018-04-12T18:57:54.379Z,20.10
2018-04-12T19:00:22.583Z,20.10
2018-04-12T19:02:50.376Z,20.10
2018-04-12T19:05:17.947Z,20.00
2018-04-12T19:10:38.679Z,19.90
2018-04-12T19:13:07.025Z,19.90
2018-04-12T19:15:34.814Z,19.90
2018-04-12T19:18:03.147Z,19.80
2018-04-12T19:20:31.466Z,19.80
2018-04-12T19:22:59.048Z,19.80
2018-04-12T19:25:26.639Z,19.70
2018-04-12T19:27:54.276Z,19.70
2018-04-12T19:30:21.976Z,19.60
2018-04-12T19:32:49.565Z,19.60
2018-04-12T19:35:18.067Z,19.50
2018-04-12T19:37:45.661Z,19.50
2018-04-12T19:40:13.317Z,19.40
2018-04-12T19:42:40.921Z,19.30
2018-04-12T19:45:08.487Z,19.30
2018-04-12T19:47:36.113Z,19.20
2018-04-12T19:50:03.735Z,19.20
2018-04-12T19:52:31.331Z,19.20
2018-04-12T19:54:58.961Z,19.10
2018-04-12T19:57:26.544Z,19.10
2018-04-12T19:59:54.186Z,19.10
2018-04-12T20:02:22.335Z,19.00
2018-04-12T20:04:50.678Z,18.90
2018-04-12T20:07:18.334Z,18.90
2018-04-12T20:09:46.424Z,18.80
2018-04-12T20:12:14.019Z,18.90
2018-04-12T20:14:41.657Z,18.80
2018-04-12T20:17:09.997Z,18.70
2018-04-12T20:19:37.591Z,18.70
2018-04-12T20:22:06.046Z,18.70
2018-04-12T20:24:33.648Z,18.70
2018-04-12T20:27:02.329Z,18.60
2018-04-12T20:29:30.677Z,18.60
2018-04-12T20:31:58.245Z,18.60
2018-04-12T20:34:26.605Z,18.40
2018-04-12T20:36:54.279Z,18.40
2018-04-12T20:39:21.873Z,18.40
2018-04-12T20:41:49.768Z,18.40
2018-04-12T20:44:17.404Z,18.30
2018-04-12T20:46:44.976Z,18.30
2018-04-12T20:49:12.587Z,18.30
2018-04-12T20:51:40.269Z,18.20
2018-04-12T20:54:08.608Z,18.10
2018-04-12T20:56:36.232Z,18.10
2018-04-12T20:59:03.934Z,18.10
2018-04-12T21:01:31.841Z,18.10
2018-04-12T21:04:00.215Z,18.10
2018-04-12T21:06:28.561Z,18.00
2018-04-12T21:08:56.166Z,18.00
2018-04-12T21:11:23.798Z,17.90
2018-04-12T21:13:51.471Z,17.90
2018-04-12T21:16:20.096Z,17.90
2018-04-12T21:18:47.675Z,17.80
2018-04-12T21:21:15.295Z,17.80
2018-04-12T21:23:42.881Z,17.70
2018-04-12T21:26:10.793Z,17.70
2018-04-12T21:28:38.428Z,17.70
2018-04-12T21:31:06.065Z,17.70
2018-04-12T21:33:34.212Z,17.60
2018-04-12T21:36:01.897Z,17.50
2018-04-12T21:38:29.475Z,17.50
2018-04-12T21:40:57.145Z,17.50
2018-04-12T21:43:24.739Z,17.40
2018-04-12T21:45:53.379Z,17.30
2018-04-12T21:48:20.994Z,17.30
2018-04-12T21:50:48.604Z,17.30
2018-04-12T21:53:16.262Z,17.20
2018-04-12T21:55:43.872Z,17.20
2018-04-12T21:58:12.272Z,17.20
2018-04-12T22:00:39.936Z,17.10
2018-04-12T22:03:07.548Z,17.10
2018-04-12T22:05:35.299Z,17.10
2018-04-12T22:08:02.888Z,17.10
2018-04-12T22:10:31.314Z,17.00
2018-04-12T22:12:58.912Z,17.00
2018-04-12T22:15:27.014Z,16.90
2018-04-12T22:17:54.631Z,16.90
2018-04-12T22:20:22.225Z,16.90
2018-04-12T22:22:50.270Z,16.90
2018-04-12T22:25:18.346Z,16.80
2018-04-12T22:27:47.286Z,16.70
2018-04-12T22:30:15.046Z,16.70
2018-04-12T22:32:42.625Z,16.60
2018-04-12T22:35:10.237Z,16.60
2018-04-12T22:37:38.667Z,16.50
2018-04-12T22:40:06.610Z,16.50
2018-04-12T22:42:34.195Z,16.40
2018-04-12T22:45:01.764Z,16.40
2018-04-12T22:47:29.628Z,16.40
2018-04-12T22:49:57.237Z,16.30
2018-04-12T22:52:24.869Z,16.30
2018-04-12T22:54:52.817Z,16.30
2018-04-12T22:57:20.370Z,16.30
2018-04-12T22:59:48.933Z,16.10
2018-04-12T23:02:16.525Z,16.10
2018-04-12T23:04:44.664Z,16.10
2018-04-12T23:07:12.311Z,16.10
2018-04-12T23:09:39.946Z,16.10
2018-04-12T23:12:08.299Z,16.00
2018-04-12T23:14:35.888Z,16.00
2018-04-12T23:17:04.257Z,16.00
2018-04-12T23:19:32.689Z,15.90
2018-04-12T23:22:00.280Z,16.00
2018-04-12T23:24:27.874Z,15.90
2018-04-12T23:26:56.373Z,15.90
2018-04-12T23:29:24.139Z,15.90
2018-04-12T23:31:52.008Z,15.90
2018-04-12T23:34:19.598Z,15.80
2018-04-12T23:36:47.168Z,15.80
2018-04-12T23:39:14.865Z,15.80
2018-04-12T23:41:43.198Z,15.80
2018-04-12T23:44:11.152Z,15.80
2018-04-12T23:46:38.712Z,15.80
2018-04-12T23:49:06.702Z,15.80
2018-04-12T23:51:34.313Z,15.70
2018-04-12T23:54:02.098Z,15.70
2018-04-12T23:56:29.814Z,15.70
2018-04-12T23:58:58.174Z,15.60
